createdAt,value
2023-03-29T00:01:36.135Z,62.36
2023-03-29T00:04:24.830Z,62.88
2023-03-29T00:07:15.428Z,63.06
2023-03-29T00:09:59.701Z,63.13
2023-03-29T00:12:47.310Z,63.05
2023-03-29T00:15:34.453Z,62.45
2023-03-29T00:18:27.536Z,62.54
2023-03-29T00:21:15.431Z,63.27
2023-03-29T00:24:03.920Z,62.62
2023-03-29T00:26:52.445Z,62.06
2023-03-29T00:29:38.509Z,62.84
2023-03-29T00:32:26.228Z,62.69
2023-03-29T00:35:15.013Z,62.27
2023-03-29T00:38:00.824Z,62.25
2023-03-29T00:40:51.158Z,62.18
2023-03-29T00:43:58.299Z,61.92
2023-03-29T00:46:41.887Z,61.73
2023-03-29T00:49:27.893Z,61.81
2023-03-29T00:52:17.426Z,61.62
2023-03-29T00:55:11.951Z,61.54
2023-03-29T00:58:01.686Z,60.18
2023-03-29T01:00:57.550Z,60.83
2023-03-29T01:03:48.786Z,60.54
2023-03-29T01:06:40.435Z,61.11
2023-03-29T01:09:32.429Z,59.97
2023-03-29T01:12:28.325Z,61.27
2023-03-29T01:15:22.596Z,59.87
2023-03-29T01:18:09.974Z,61.27
2023-03-29T01:21:18.121Z,60.37
2023-03-29T01:24:35.331Z,60.42
2023-03-29T01:27:28.722Z,61.03
2023-03-29T01:30:23.946Z,60.93
2023-03-29T01:33:16.336Z,60.79
2023-03-29T01:36:09.179Z,60.65
2023-03-29T01:38:59.866Z,60.93
2023-03-29T01:41:54.117Z,61.08
2023-03-29T01:44:50.527Z,59.75
2023-03-29T01:47:48.329Z,60.81
2023-03-29T01:50:41.236Z,60.17
2023-03-29T01:53:33.121Z,59.94
2023-03-29T01:56:23.833Z,58.98
2023-03-29T01:59:13.721Z,59.03
2023-03-29T02:02:04.449Z,59.58
2023-03-29T02:04:56.691Z,60.04
2023-03-29T02:07:47.394Z,60.70
2023-03-29T02:10:35.609Z,59.28
2023-03-29T02:13:23.141Z,60.05
2023-03-29T02:16:12.830Z,60.25
2023-03-29T02:19:01.784Z,60.14
2023-03-29T02:21:55.640Z,60.44
2023-03-29T02:24:46.334Z,60.36
2023-03-29T02:27:34.379Z,60.53
2023-03-29T02:30:24.357Z,59.70
2023-03-29T02:33:14.724Z,59.12
2023-03-29T02:36:07.329Z,59.76
2023-03-29T02:38:58.262Z,59.84
2023-03-29T02:41:46.932Z,59.93
2023-03-29T02:44:41.200Z,58.61
2023-03-29T02:47:35.866Z,58.73
2023-03-29T02:50:20.546Z,58.77
2023-03-29T02:53:11.781Z,59.30
2023-03-29T02:56:04.772Z,58.35
2023-03-29T02:58:53.637Z,58.70
2023-03-29T03:01:41.190Z,58.40
2023-03-29T03:04:27.046Z,58.35
2023-03-29T03:07:15.990Z,58.39
2023-03-29T03:10:06.028Z,59.05
2023-03-29T03:12:55.491Z,58.64
2023-03-29T03:15:44.631Z,59.35
2023-03-29T03:18:36.781Z,59.66
2023-03-29T03:21:30.835Z,60.30
2023-03-29T03:24:19.248Z,60.43
2023-03-29T03:27:07.133Z,60.20
2023-03-29T03:33:11.658Z,59.97
2023-03-29T03:36:03.007Z,60.20
2023-03-29T03:38:52.427Z,59.89
2023-03-29T03:41:43.091Z,60.35
2023-03-29T03:44:34.861Z,59.79
2023-03-29T03:47:21.233Z,59.59
2023-03-29T03:50:05.816Z,59.66
2023-03-29T03:53:02.195Z,57.63
2023-03-29T03:55:56.109Z,57.86
2023-03-29T03:58:42.523Z,57.87
2023-03-29T04:01:29.646Z,56.93
2023-03-29T04:04:17.468Z,58.00
2023-03-29T04:07:06.342Z,57.19
2023-03-29T04:09:54.450Z,57.32
2023-03-29T04:12:42.710Z,56.39
2023-03-29T04:15:30.147Z,56.42
2023-03-29T04:18:16.519Z,57.30
2023-03-29T04:21:05.879Z,55.36
2023-03-29T04:23:53.272Z,56.43
2023-03-29T04:26:38.874Z,56.05
2023-03-29T04:29:29.093Z,54.54
2023-03-29T04:32:16.570Z,54.99
2023-03-29T04:35:04.358Z,55.32
2023-03-29T04:37:55.295Z,54.45
2023-03-29T04:40:45.959Z,54.92
2023-03-29T04:43:32.121Z,55.06
2023-03-29T04:46:22.097Z,54.68
2023-03-29T04:49:07.941Z,54.39
2023-03-29T04:51:56.080Z,53.15
2023-03-29T04:54:47.281Z,54.22
2023-03-29T04:57:35.924Z,53.73
2023-03-29T05:00:28.091Z,52.83
2023-03-29T05:03:16.969Z,54.12
2023-03-29T05:06:08.858Z,53.77
2023-03-29T05:08:56.239Z,51.97
2023-03-29T05:11:46.512Z,53.30
2023-03-29T05:14:36.143Z,53.46
2023-03-29T05:17:24.730Z,51.64
2023-03-29T05:20:16.004Z,52.05
2023-03-29T05:23:08.009Z,50.86
2023-03-29T05:25:56.483Z,49.66
2023-03-29T05:28:46.278Z,48.68
2023-03-29T05:31:33.460Z,47.56
2023-03-29T05:34:20.645Z,46.58
2023-03-29T05:37:08.651Z,46.35
2023-03-29T05:40:06.021Z,47.89
2023-03-29T05:42:54.639Z,47.89
2023-03-29T05:45:47.778Z,48.37
2023-03-29T05:48:34.294Z,47.99
2023-03-29T05:51:26.851Z,48.91
2023-03-29T05:54:14.857Z,47.57
2023-03-29T05:57:01.783Z,46.23
2023-03-29T05:59:52.062Z,46.07
2023-03-29T06:02:43.345Z,44.14
2023-03-29T06:05:32.045Z,42.29
2023-03-29T06:08:20.425Z,42.44
2023-03-29T06:11:10.095Z,42.50
2023-03-29T06:13:59.727Z,40.18
2023-03-29T06:16:50.432Z,39.43
2023-03-29T06:19:40.614Z,34.48
2023-03-29T06:22:28.204Z,29.82
2023-03-29T06:25:17.082Z,26.91
2023-03-29T06:28:04.129Z,27.01
2023-03-29T06:30:56.724Z,27.19
2023-03-29T06:33:44.115Z,27.42
2023-03-29T06:36:33.035Z,30.76
2023-03-29T06:39:31.410Z,32.45
2023-03-29T06:42:21.623Z,31.61
2023-03-29T06:45:10.582Z,31.69
2023-03-29T06:47:58.101Z,33.92
2023-03-29T06:50:44.958Z,33.38
2023-03-29T06:53:34.775Z,30.40
2023-03-29T06:56:21.734Z,31.27
2023-03-29T06:59:10.857Z,28.12
2023-03-29T07:01:57.991Z,27.72
2023-03-29T07:04:45.258Z,26.69
2023-03-29T07:07:54.410Z,22.24
2023-03-29T07:10:46.346Z,18.70
2023-03-29T07:13:34.973Z,17.20
2023-03-29T07:16:21.256Z,18.67
2023-03-29T07:19:10.377Z,16.71
2023-03-29T07:21:59.023Z,15.61
2023-03-29T07:24:46.221Z,15.44
2023-03-29T07:27:35.498Z,14.90
2023-03-29T07:30:24.924Z,13.70
2023-03-29T07:33:12.890Z,13.26
2023-03-29T07:35:58.690Z,13.85
2023-03-29T07:38:45.383Z,13.35
2023-03-29T07:41:33.178Z,15.48
2023-03-29T07:44:23.671Z,15.12
2023-03-29T07:47:12.384Z,16.34
2023-03-29T07:49:57.528Z,13.98
2023-03-29T07:52:46.794Z,13.82
2023-03-29T07:55:33.845Z,15.36
2023-03-29T07:58:20.024Z,15.86
2023-03-29T08:01:14.183Z,13.74
2023-03-29T08:04:05.592Z,13.38
2023-03-29T08:06:51.708Z,12.31
2023-03-29T08:09:37.840Z,12.45
2023-03-29T08:12:25.046Z,11.96
2023-03-29T08:15:10.968Z,10.61
2023-03-29T08:17:56.966Z,10.66
2023-03-29T08:20:42.031Z,10.97
2023-03-29T08:23:26.668Z,10.82
2023-03-29T08:26:11.651Z,10.99
2023-03-29T08:28:56.264Z,10.61
2023-03-29T08:31:40.970Z,11.77
2023-03-29T08:34:27.634Z,11.79
2023-03-29T08:37:12.835Z,10.72
2023-03-29T08:39:57.320Z,11.80
2023-03-29T08:43:10.619Z,10.76
2023-03-29T08:46:06.405Z,11.55
2023-03-29T08:48:57.206Z,10.47
2023-03-29T08:51:47.869Z,10.42
2023-03-29T08:54:47.919Z,10.94
2023-03-29T08:57:36.398Z,11.08
2023-03-29T09:00:26.947Z,9.86
2023-03-29T09:03:19.172Z,10.02
2023-03-29T09:06:08.689Z,9.81
2023-03-29T09:08:55.411Z,9.32
2023-03-29T09:11:54.988Z,10.93
2023-03-29T09:14:59.681Z,9.73
2023-03-29T09:17:55.802Z,10.10
2023-03-29T09:20:49.925Z,9.32
2023-03-29T09:23:57.960Z,9.80
2023-03-29T09:26:48.991Z,8.80
2023-03-29T09:29:49.751Z,9.37
2023-03-29T09:32:41.662Z,9.14
2023-03-29T09:35:29.878Z,9.80
2023-03-29T09:38:16.499Z,9.98
2023-03-29T09:41:10.177Z,8.68
2023-03-29T09:43:56.943Z,8.84
2023-03-29T09:46:44.377Z,10.41
2023-03-29T09:49:32.705Z,9.25
2023-03-29T09:52:21.985Z,9.99
2023-03-29T09:55:09.751Z,8.91
2023-03-29T09:57:56.368Z,9.42
2023-03-29T10:00:41.519Z,9.03
2023-03-29T10:03:28.967Z,8.39
2023-03-29T10:06:16.920Z,8.63
2023-03-29T10:09:03.994Z,7.89
2023-03-29T10:11:53.653Z,8.73
2023-03-29T10:14:45.289Z,8.09
2023-03-29T10:17:34.739Z,8.12
2023-03-29T10:20:21.259Z,8.33
2023-03-29T10:23:10.266Z,7.68
2023-03-29T10:25:57.410Z,8.28
2023-03-29T10:28:42.553Z,8.08
2023-03-29T10:31:34.482Z,7.64
2023-03-29T10:34:21.175Z,8.71
2023-03-29T10:37:09.062Z,7.83
2023-03-29T10:39:56.117Z,7.87
2023-03-29T10:42:51.845Z,7.03
2023-03-29T10:45:38.735Z,8.25
2023-03-29T10:48:31.125Z,7.58
2023-03-29T10:51:17.548Z,7.55
2023-03-29T10:54:03.655Z,7.61
2023-03-29T10:56:56.182Z,8.19
2023-03-29T10:59:52.400Z,8.16
2023-03-29T11:03:11.599Z,8.37
2023-03-29T11:06:06.359Z,9.80
2023-03-29T11:08:59.563Z,9.95
2023-03-29T11:12:14.985Z,9.26
2023-03-29T11:15:16.020Z,9.26
2023-03-29T11:18:18.169Z,8.64
2023-03-29T11:21:13.083Z,9.52
2023-03-29T11:24:20.385Z,9.89
2023-03-29T11:27:19.672Z,10.07
2023-03-29T11:30:11.546Z,13.13
2023-03-29T11:33:04.039Z,14.61
2023-03-29T11:35:56.892Z,17.54
2023-03-29T11:38:51.360Z,18.78
2023-03-29T11:41:40.951Z,20.49
2023-03-29T11:44:30.855Z,22.05
2023-03-29T11:47:20.268Z,22.20
2023-03-29T11:50:11.028Z,23.70
2023-03-29T11:52:59.504Z,23.21
2023-03-29T11:55:47.835Z,26.76
2023-03-29T11:58:39.094Z,26.10
2023-03-29T12:01:30.655Z,25.99
2023-03-29T12:04:23.835Z,25.79
2023-03-29T12:07:17.594Z,25.08
2023-03-29T12:10:08.969Z,23.96
2023-03-29T12:13:02.218Z,25.65
2023-03-29T12:15:52.719Z,26.40
2023-03-29T12:18:42.826Z,24.99
2023-03-29T12:21:30.722Z,24.87
2023-03-29T12:24:27.163Z,25.74
2023-03-29T12:27:29.778Z,25.92
2023-03-29T12:30:47.128Z,27.10
2023-03-29T12:33:58.227Z,25.87
2023-03-29T12:36:59.350Z,24.57
2023-03-29T12:39:44.606Z,27.43
2023-03-29T12:42:30.102Z,25.10
2023-03-29T12:45:20.845Z,26.24
2023-03-29T12:48:08.440Z,27.00
2023-03-29T12:50:55.111Z,26.39
2023-03-29T12:53:43.310Z,27.22
2023-03-29T12:56:42.118Z,26.64
2023-03-29T12:59:39.638Z,27.14
2023-03-29T13:02:39.460Z,26.68
2023-03-29T13:05:37.232Z,26.46
2023-03-29T13:08:30.111Z,28.82
2023-03-29T13:11:28.445Z,26.90
2023-03-29T13:14:19.715Z,25.36
2023-03-29T13:17:17.763Z,26.95
2023-03-29T13:20:22.380Z,26.40
2023-03-29T13:23:25.734Z,27.49
2023-03-29T13:26:30.359Z,26.55
2023-03-29T13:29:40.479Z,27.88
2023-03-29T13:32:42.066Z,27.53
2023-03-29T13:35:38.648Z,26.54
2023-03-29T13:38:28.973Z,27.93
2023-03-29T13:41:29.754Z,27.78
2023-03-29T13:44:28.116Z,27.39
2023-03-29T13:47:30.859Z,27.59
2023-03-29T13:50:20.709Z,27.88
2023-03-29T13:53:13.195Z,27.85
2023-03-29T13:56:01.370Z,26.23
2023-03-29T13:58:50.398Z,27.87
2023-03-29T14:01:41.283Z,27.45
2023-03-29T14:04:29.368Z,26.72
2023-03-29T14:07:17.506Z,27.13
2023-03-29T14:10:04.362Z,25.86
2023-03-29T14:12:51.863Z,27.55
2023-03-29T14:15:46.351Z,26.42
2023-03-29T14:18:35.983Z,25.77
2023-03-29T14:21:22.511Z,26.73
2023-03-29T14:24:07.393Z,25.43
2023-03-29T14:26:53.374Z,25.89
2023-03-29T14:29:41.856Z,26.26
2023-03-29T14:32:31.718Z,25.46
2023-03-29T14:35:18.225Z,25.57
2023-03-29T14:38:04.408Z,25.90
2023-03-29T14:40:50.912Z,25.85
2023-03-29T14:43:36.237Z,26.56
2023-03-29T14:46:24.723Z,27.09
2023-03-29T14:49:09.839Z,26.84
2023-03-29T14:51:56.261Z,27.00
2023-03-29T14:54:44.333Z,26.40
2023-03-29T14:57:35.854Z,25.86
2023-03-29T15:00:35.548Z,26.99
2023-03-29T15:03:27.339Z,26.20
2023-03-29T15:06:15.335Z,27.42
2023-03-29T15:09:05.790Z,27.74
2023-03-29T15:11:56.030Z,27.09
2023-03-29T15:14:41.325Z,27.11
2023-03-29T15:17:47.731Z,26.10
2023-03-29T15:20:41.624Z,26.34
2023-03-29T15:23:27.046Z,27.21
2023-03-29T15:26:15.347Z,26.65
2023-03-29T15:29:09.977Z,27.16
2023-03-29T15:31:59.748Z,27.74
2023-03-29T15:34:46.569Z,28.82
2023-03-29T15:37:32.892Z,28.12
2023-03-29T15:40:18.937Z,28.08
2023-03-29T15:43:04.157Z,28.62
2023-03-29T15:45:48.722Z,29.46
2023-03-29T15:48:34.134Z,29.87
2023-03-29T15:51:20.469Z,29.28
2023-03-29T15:54:08.216Z,29.14
2023-03-29T15:56:55.581Z,29.47
2023-03-29T15:59:40.707Z,29.44
2023-03-29T16:02:27.458Z,29.81
2023-03-29T16:05:14.611Z,30.03
2023-03-29T16:07:59.496Z,30.86
2023-03-29T16:10:47.721Z,31.13
2023-03-29T16:13:32.820Z,30.53
2023-03-29T16:16:18.191Z,31.77
2023-03-29T16:19:03.872Z,30.86
2023-03-29T16:21:49.620Z,30.81
2023-03-29T16:24:35.523Z,29.98
2023-03-29T16:27:21.543Z,30.60
2023-03-29T16:30:07.892Z,32.05
2023-03-29T16:32:53.243Z,31.94
2023-03-29T16:35:40.502Z,31.95
2023-03-29T16:38:26.100Z,31.56
2023-03-29T16:41:14.237Z,32.42
2023-03-29T16:44:01.419Z,32.14
2023-03-29T16:46:49.494Z,31.54
2023-03-29T16:49:35.324Z,32.86
2023-03-29T16:52:20.454Z,32.25
2023-03-29T16:55:06.270Z,33.17
2023-03-29T16:57:51.556Z,33.88
2023-03-29T17:00:39.100Z,33.22
2023-03-29T17:03:23.644Z,34.39
2023-03-29T17:06:09.476Z,33.56
2023-03-29T17:08:53.977Z,34.55
2023-03-29T17:11:38.140Z,34.68
2023-03-29T17:14:23.107Z,34.41
2023-03-29T17:17:13.546Z,34.29
2023-03-29T17:19:58.892Z,33.73
2023-03-29T17:22:44.500Z,34.01
2023-03-29T17:25:30.271Z,34.76
2023-03-29T17:28:16.826Z,34.45
2023-03-29T17:31:01.607Z,33.79
2023-03-29T17:33:51.310Z,33.55
2023-03-29T17:36:38.176Z,33.86
2023-03-29T17:39:21.934Z,34.88
2023-03-29T17:42:07.801Z,34.24
2023-03-29T17:44:55.238Z,34.07
2023-03-29T17:47:42.634Z,34.46
2023-03-29T17:50:30.236Z,34.09
2023-03-29T17:53:18.809Z,33.92
2023-03-29T17:56:02.882Z,33.20
2023-03-29T17:58:46.967Z,33.37
2023-03-29T18:01:31.731Z,33.11
2023-03-29T18:04:16.219Z,32.41
2023-03-29T18:07:04.712Z,33.60
2023-03-29T18:09:50.305Z,33.10
2023-03-29T18:12:33.730Z,33.23
2023-03-29T18:18:07.324Z,33.55
2023-03-29T18:20:52.030Z,33.25
2023-03-29T18:23:40.264Z,34.02
2023-03-29T18:26:24.369Z,34.46
2023-03-29T18:29:09.756Z,34.63
2023-03-29T18:31:54.909Z,33.88
2023-03-29T18:34:39.448Z,34.45
2023-03-29T18:37:23.228Z,33.89
2023-03-29T18:40:10.242Z,33.89
2023-03-29T18:42:58.146Z,35.47
2023-03-29T18:45:47.262Z,35.92
2023-03-29T18:48:34.269Z,34.70
2023-03-29T18:51:19.236Z,34.55
2023-03-29T18:54:06.853Z,35.15
2023-03-29T18:56:52.919Z,35.22
2023-03-29T18:59:38.535Z,34.27
2023-03-29T19:02:26.522Z,35.30
2023-03-29T19:05:12.287Z,35.64
2023-03-29T19:07:58.201Z,36.13
2023-03-29T19:10:43.294Z,35.99
2023-03-29T19:13:30.216Z,35.17
2023-03-29T19:16:15.128Z,36.71
2023-03-29T19:19:00.952Z,35.94
2023-03-29T19:21:47.041Z,35.20
2023-03-29T19:24:37.092Z,36.55
2023-03-29T19:27:25.874Z,35.67
2023-03-29T19:30:14.929Z,36.31
2023-03-29T19:33:02.865Z,36.75
2023-03-29T19:35:50.168Z,37.05
2023-03-29T19:38:35.194Z,36.72
2023-03-29T19:41:20.869Z,36.66
2023-03-29T19:44:07.023Z,36.33
2023-03-29T19:46:55.501Z,38.42
2023-03-29T19:49:41.254Z,36.30
2023-03-29T19:52:28.152Z,36.79
2023-03-29T19:55:13.930Z,37.48
2023-03-29T19:57:59.514Z,37.08
2023-03-29T20:00:45.313Z,37.90
2023-03-29T20:03:36.247Z,37.62
2023-03-29T20:06:22.778Z,36.88
2023-03-29T20:09:08.399Z,37.84
2023-03-29T20:11:54.584Z,38.10
2023-03-29T20:14:41.398Z,37.13
2023-03-29T20:17:26.671Z,37.78
2023-03-29T20:20:16.037Z,37.63
2023-03-29T20:23:04.958Z,38.20
2023-03-29T20:25:51.223Z,37.86
2023-03-29T20:28:37.953Z,37.97
2023-03-29T20:31:23.278Z,37.32
2023-03-29T20:34:08.612Z,37.76
2023-03-29T20:36:55.772Z,37.32
2023-03-29T20:39:42.787Z,37.05
2023-03-29T20:42:31.357Z,37.85
2023-03-29T20:45:21.225Z,37.57
2023-03-29T20:48:06.597Z,36.81
2023-03-29T20:50:51.934Z,37.95
2023-03-29T20:53:43.330Z,37.69
2023-03-29T20:56:29.098Z,37.25
2023-03-29T20:59:13.892Z,38.04
2023-03-29T21:02:03.806Z,38.30
2023-03-29T21:04:53.751Z,37.63
2023-03-29T21:07:39.420Z,38.03
2023-03-29T21:10:27.498Z,37.38
2023-03-29T21:13:11.894Z,37.59
2023-03-29T21:16:04.337Z,37.01
2023-03-29T21:18:49.686Z,37.34
2023-03-29T21:21:35.489Z,37.00
2023-03-29T21:24:21.549Z,37.77
2023-03-29T21:27:09.744Z,36.86
2023-03-29T21:29:56.084Z,37.42
2023-03-29T21:32:41.940Z,37.02
2023-03-29T21:35:27.253Z,36.42
2023-03-29T21:38:16.372Z,36.98
2023-03-29T21:41:04.680Z,36.64
2023-03-29T21:43:52.797Z,37.11
2023-03-29T21:46:36.841Z,36.49
2023-03-29T21:49:22.018Z,36.50
2023-03-29T21:52:07.622Z,37.74
2023-03-29T21:54:53.560Z,37.79
2023-03-29T21:57:39.087Z,37.35
2023-03-29T22:00:27.299Z,37.36
2023-03-29T22:03:13.893Z,37.25
2023-03-29T22:06:00.822Z,38.12
2023-03-29T22:08:47.842Z,37.69
2023-03-29T22:11:35.728Z,37.20
2023-03-29T22:14:22.514Z,37.57
2023-03-29T22:17:11.973Z,37.98
2023-03-29T22:19:59.810Z,37.26
2023-03-29T22:22:50.342Z,37.39
2023-03-29T22:25:35.752Z,37.52
2023-03-29T22:28:23.366Z,37.17
2023-03-29T22:31:14.087Z,37.64
2023-03-29T22:34:03.549Z,38.05
2023-03-29T22:36:51.426Z,37.85
2023-03-29T22:39:38.310Z,37.96
2023-03-29T22:42:24.807Z,38.49
2023-03-29T22:45:15.191Z,38.09
2023-03-29T22:48:01.787Z,38.78
2023-03-29T22:50:51.635Z,38.95
2023-03-29T22:53:37.890Z,38.02
2023-03-29T22:56:25.267Z,38.29
2023-03-29T22:59:11.879Z,38.58
2023-03-29T23:01:57.390Z,38.50
2023-03-29T23:04:43.315Z,39.31
2023-03-29T23:07:31.894Z,38.28
2023-03-29T23:10:18.040Z,37.70
2023-03-29T23:13:09.193Z,39.21
2023-03-29T23:15:56.133Z,38.73
2023-03-29T23:18:43.109Z,39.04
2023-03-29T23:21:29.026Z,38.64
2023-03-29T23:24:19.030Z,39.03
2023-03-29T23:27:05.963Z,39.15
2023-03-29T23:29:51.497Z,39.30
2023-03-29T23:32:36.993Z,39.40
2023-03-29T23:35:23.330Z,40.25
2023-03-29T23:38:10.220Z,41.40
2023-03-29T23:40:59.543Z,41.18
2023-03-29T23:43:47.461Z,40.99
2023-03-29T23:46:35.160Z,40.56
2023-03-29T23:49:23.622Z,41.61
2023-03-29T23:52:09.366Z,42.01
2023-03-29T23:54:53.958Z,42.04
2023-03-29T23:57:40.911Z,43.35
